• Join FlightAware (Why Join?)
  • Login
  • US Flag 
07:42PM EDT


 

Airport Tracker/Info


-or-


 

Live Flight TrackerFlight Track Log ✈ AAL2345 ✈ 19-Apr-2013 ✈ KORD - KDFW

Flight Track Log - Related Links

Times and Time Zones

All times are in EDT time to prevent confusion due to time zone crossing. See the AAL2345 flight status page for this flight to view local times or setup timezone preferences in your user account.

Time Position Orientation Groundspeed Altitude Reporting Facility
EDT Latitude Longitude Course Direction KTS MPH feet Rate Location/Type
06:50PM 42.0000 -88.0000 254° West 199 229 3,200  Level Chicago TRACON
06:51PM 42.0000 -88.0833 270° West 231 266 6,400 2,880 Climbing Chicago TRACON
06:52PM 41.8874 -88.2963 255° West  Level FlightAware Approximate
06:52PM 41.9972 -88.1417 266° West 226 260 8,700  Level Chicago Center
06:53PM 41.8455 -88.4224 255° West  Level FlightAware Approximate
06:53PM 41.9936 -88.2547 268° West 249 287 12,100  Level Chicago Center
06:54PM 41.8173 -88.5560 254° West  Level FlightAware Approximate
06:54PM 41.9917 -88.3506 268° West 256 295 13,700  Level Chicago Center
06:55PM 41.7864 -88.6957 254° West  Level FlightAware Approximate
06:55PM 41.9669 -88.4589 253° West 303 349 14,900  Level Chicago Center
06:56PM 41.9339 -88.5756 249° West 332 382 16,900 2,040 Climbing Chicago Center
06:57PM 41.8978 -88.7017 249° West 357 411 19,200 2,340 Climbing Chicago Center
06:58PM 41.8531 -88.8572 249° West 374 430 21,800 2,220 Climbing Chicago Center
06:59PM 41.8147 -88.9875 248° West 378 435 23,800 1,740 Climbing Chicago Center
07:00PM 41.7767 -89.1225 249° West 387 445 25,400 1,440 Climbing Chicago Center
07:01PM 41.7344 -89.2617 248° West 401 461 26,800 1,380 Climbing Chicago Center
07:02PM 41.6922 -89.4039 248° West 410 472 28,300 1,560 Climbing Chicago Center
07:03PM 41.6308 -89.5625 243° Southwest 406 467 30,000 1,260 Climbing Chicago Center
07:04PM 41.5811 -89.6689 238° Southwest 400 460 31,000 1,020 Climbing Chicago Center
07:05PM 41.5217 -89.7958 238° Southwest 402 463 32,200 960 Climbing Chicago Center
07:06PM 41.4536 -89.9425 238° Southwest 393 452 33,100 720 Climbing Chicago Center
07:07PM 41.3958 -90.0661 238° Southwest 393 452 33,700 420 Climbing Chicago Center
07:08PM 41.3372 -90.1908 238° Southwest 398 458 34,000 120 Climbing Chicago Center
07:09PM 41.2786 -90.3139 238° Southwest 396 456 34,000  Level Chicago Center
07:10PM 41.2183 -90.4411 238° Southwest 408 470 34,000  Level Chicago Center
07:11PM 41.1592 -90.5656 238° Southwest 403 464 34,000  Level Chicago Center
07:12PM 41.0856 -90.7117 236° Southwest 399 459 34,000  Level Chicago Center
07:13PM 41.0264 -90.8344 237° Southwest 398 458 34,000  Level Chicago Center
07:15PM 40.9036 -91.0800 237° Southwest 401 461 34,000  Level Kansas City Center
07:17PM 40.8431 -91.2014 237° Southwest 399 459 34,000  Level Kansas City Center
07:18PM 40.7831 -91.3269 238° Southwest 402 463 34,000  Level Chicago Center
07:19PM 40.7081 -91.4750 236° Southwest 405 466 34,000  Level Chicago Center
07:20PM 40.6472 -91.5964 237° Southwest 402 463 34,000  Level Chicago Center
07:21PM 40.5950 -91.6917 234° Southwest 402 463 34,000  Level Kansas City Center
07:22PM 40.4867 -91.8056 219° Southwest 413 475 34,000  Level Kansas City Center
07:23PM 40.3933 -91.8992 217° Southwest 419 482 34,000  Level Kansas City Center
07:24PM 40.3003 -91.9944 218° Southwest 423 487 34,000  Level Kansas City Center
07:25PM 40.2075 -92.0892 218° Southwest 423 487 34,000  Level Kansas City Center
07:26PM 40.1136 -92.1836 218° Southwest 424 488 34,000  Level Kansas City Center
07:27PM 40.0208 -92.2758 217° Southwest 420 483 34,000  Level Kansas City Center
07:28PM 39.9281 -92.3681 217° Southwest 419 482 34,000  Level Kansas City Center
07:29PM 39.8167 -92.4775 217° Southwest 418 481 34,000  Level Kansas City Center
07:30PM 39.7231 -92.5683 217° Southwest 419 482 34,000  Level Kansas City Center
07:31PM 39.6281 -92.6589 216° Southwest 423 487 34,000  Level Kansas City Center
07:32PM 39.5336 -92.7531 218° Southwest 427 491 34,000  Level Kansas City Center
07:33PM 39.4408 -92.8433 217° Southwest 423 487 34,000  Level Kansas City Center
07:34PM 39.3481 -92.9300 216° Southwest 417 480 34,000  Level Kansas City Center
07:35PM 39.2575 -93.0181 217° Southwest 412 474 34,000  Level Kansas City Center
07:36PM 39.1472 -93.1203 216° Southwest 410 472 34,000  Level Kansas City Center
07:37PM 39.0558 -93.2089 217° Southwest 412 474 34,000  Level Kansas City Center
07:38PM 38.9703 -93.2903 216° Southwest 409 471 34,000  Level Kansas City Center
07:39PM 38.8783 -93.3761 216° Southwest 409 471 34,000  Level Kansas City Center
07:40PM 38.7672 -93.4814 216° Southwest 411 473 34,000  Level Kansas City Center
07:41PM 38.6744 -93.5669 216° Southwest 411 473 34,000  Level Kansas City Center
07:42PM 38.5839 -93.6528 217° Southwest 408 470 34,000  Level Kansas City Center
07:43PM 38.4936 -93.7378 216° Southwest 405 466 34,000  Level Kansas City Center
07:44PM 38.4017 -93.8217 216° Southwest 405 466 34,000  Level Kansas City Center
07:45PM 38.3117 -93.9056 216° Southwest 403 464 34,000  Level Kansas City Center
07:46PM 38.2206 -93.9897 216° Southwest 403 464 34,000  Level Kansas City Center
07:47PM 38.1106 -94.0908 216° Southwest 405 466 34,000  Level Kansas City Center
07:48PM 38.0178 -94.1736 215° Southwest 410 472 34,000  Level Kansas City Center
07:49PM 37.9233 -94.2597 216° Southwest 412 474 34,000  Level Kansas City Center
07:50PM 37.8297 -94.3447 216° Southwest 411 473 34,000  Level Kansas City Center
07:52PM 37.7353 -94.4289 215° Southwest 414 476 34,000  Level Kansas City Center
07:53PM 37.6414 -94.5167 217° Southwest 417 480 34,000  Level Kansas City Center
07:54PM 37.5478 -94.6003 215° Southwest 414 476 34,000  Level Kansas City Center
07:55PM 37.4553 -94.6822 215° Southwest 408 470 34,000  Level Kansas City Center
07:56PM 37.3428 -94.7836 216° Southwest 411 473 34,000  Level Kansas City Center
07:57PM 37.2472 -94.8686 215° Southwest 416 479 34,000  Level Kansas City Center
07:58PM 37.1536 -94.9519 215° Southwest 415 478 34,000  Level Kansas City Center
07:59PM 37.0589 -95.0364 215° Southwest 416 479 34,000  Level Kansas City Center
08:00PM 36.9650 -95.1183 215° Southwest 413 475 34,000  Level Kansas City Center
08:01PM 36.8703 -95.2008 215° Southwest 414 476 34,000  Level Kansas City Center
08:02PM 36.7764 -95.2833 215° Southwest 414 476 34,000  Level Kansas City Center
08:03PM 36.6631 -95.3822 215° Southwest 414 476 34,000  Level Kansas City Center
08:04PM 36.5833 -95.4514 215° Southwest 416 479 34,000  Level Kansas City Center
08:05PM 36.4708 -95.5481 215° Southwest 411 473 34,000  Level Kansas City Center
08:06PM 36.3794 -95.6281 215° Southwest 405 466 34,000  Level Kansas City Center
08:07PM 36.2856 -95.7092 215° Southwest 408 470 34,000  Level Kansas City Center
08:08PM 36.1833 -95.7972 215° Southwest 408 470 34,000  Level Kansas City Center
08:09PM 36.0922 -95.8806 216° Southwest 408 470 34,000  Level Kansas City Center
08:10PM 36.0011 -95.9642 217° Southwest 409 471 34,000  Level Kansas City Center
08:11PM 35.9111 -96.0456 216° Southwest 403 464 34,000  Level Kansas City Center
08:12PM 35.8200 -96.1281 216° Southwest 405 466 34,000  Level Kansas City Center
08:13PM 35.7197 -96.2194 217° Southwest 406 467 34,000  Level Kansas City Center
08:14PM 35.6283 -96.3011 216° Southwest 405 466 34,000  Level Kansas City Center
08:15PM 35.5369 -96.3825 216° Southwest 405 466 34,000  Level Kansas City Center
08:16PM 35.4467 -96.4642 216° Southwest 404 465 34,000  Level Kansas City Center
08:17PM 35.3561 -96.5461 216° Southwest 403 464 34,000  Level Kansas City Center
08:18PM 35.2642 -96.6278 216° Southwest 405 466 34,000  Level Kansas City Center
08:19PM 35.1708 -96.7100 216° Southwest 409 471 34,000  Level Kansas City Center
08:20PM 35.0544 -96.8150 216° Southwest 404 465 34,000  Level Fort Worth Center
08:21PM 34.9589 -96.8967 215° Southwest 409 471 34,000  Level Fort Worth Center
08:22PM 34.8694 -96.9783 217° Southwest 409 471 34,000  Level Fort Worth Center
08:23PM 34.7758 -97.0597 216° Southwest 409 471 34,000 -600 Level Fort Worth Center
08:24PM 34.6864 -97.1383 216° Southwest 409 471 32,900 -1,560 Descending Fort Worth Center
08:25PM 34.5967 -97.2167 216° Southwest 403 464 30,900 -1,800 Descending Fort Worth Center
08:26PM 34.5114 -97.2900 215° Southwest 403 464 29,400 -1,860 Descending Fort Worth Center
08:27PM 34.4300 -97.3631 217° Southwest 389 448 27,200 -2,640 Descending Fort Worth Center
08:28PM 34.3403 -97.4386 215° Southwest 383 441 24,200 -1,620 Descending Fort Worth Center
08:29PM 34.2400 -97.4964 205° Southwest 393 452 24,000 -120 Descending Fort Worth Center
08:30PM 34.1336 -97.5464 201° Southwest 398 458 24,000  Level Fort Worth Center
08:31PM 34.0231 -97.5739 192° South 405 466 24,000  Level Fort Worth Center
08:32PM 33.9019 -97.5886 186° South 433 498 24,000 -540 Level Fort Worth Center
08:33PM 33.7975 -97.5983 184° South 433 498 23,000 -2,100 Descending Fort Worth Center
08:34PM 33.6806 -97.6106 185° South 428 493 19,900 -3,120 Descending Fort Worth Center
08:35PM 33.5722 -97.6228 185° South 414 476 16,800 -3,300 Descending Fort Worth Center
08:36PM 33.4531 -97.6325 184° South 394 453 13,300 -2,700 Descending Fort Worth Center
08:37PM 33.3572 -97.6100 169° South 360 414 11,400 -1,200 Descending Fort Worth Center
08:38PM 33.2906 -97.5328 136° Southeast 346 398 11,000 -240 Descending Fort Worth Center
08:39PM 33.2111 -97.4408 136° Southeast 359 413 11,000  Level Fort Worth Center
08:40PM 33.1464 -97.3664 136° Southeast 364 419 11,000  Level Fort Worth Center
08:41PM 33.0733 -97.2772 134° Southeast 353 406 11,000  Level Fort Worth Center
08:42PM 33.0211 -97.2178 136° Southeast 305 351 11,000 -300 Level Fort Worth Center
08:43PM 32.9564 -97.1683 147° Southeast 266 306 10,400 -1,200 Descending Fort Worth Center
08:44PM 32.8917 -97.1711 182° South 247 284 8,700 -1,800 Descending Fort Worth Center
08:45PM 32.8206 -97.1661 177° South 254 292 6,800 -2,040 Descending Fort Worth Center
08:46PM 32.7600 -97.1467 165° South 233 268 4,700 -1,920 Descending Fort Worth Center
08:47PM 32.7500 -97.1000 104° East 210 242 3,700 -1,680 Descending Dallas / Fort Worth TRACON